Terminal Aerodrome Forecast
Issued by NWS

Home | Current Version | Previous Version | Text Only | Print | Product List | Glossary On
Versions: 1 2 3 4 5 6 7 8 9 10 11 12
000
FTUS45 KABQ 020540
TAFGUP
TAF
KGUP 020540Z 0206/0306 VRB04KT P6SM BKN120
     FM021900 23009KT P6SM SCT100 SCT140 BKN200
     FM022100 24010G16KT P6SM VCSH SCT090 BKN140 PROB30 0222/0302
      VRB18G31KT -TSRA BKN070CB OVC110
     FM030400 VRB06KT P6SM SCT100 BKN140=

USA.gov is the U.S. government's official web portal to all federal, state and local government web resources and services.